sensor_id;sensor_type;location;lat;lon;timestamp;temperature;humidity
37456;DHT22;23316;50.718;7.328;2022-07-29T00:01:48;22.20;44.10
37456;DHT22;23316;50.718;7.328;2022-07-29T00:04:15;22.20;44.10
37456;DHT22;23316;50.718;7.328;2022-07-29T00:06:42;22.20;44.10
37456;DHT22;23316;50.718;7.328;2022-07-29T00:09:09;22.20;44.00
37456;DHT22;23316;50.718;7.328;2022-07-29T00:11:37;22.10;43.90
37456;DHT22;23316;50.718;7.328;2022-07-29T00:14:05;22.10;44.00
37456;DHT22;23316;50.718;7.328;2022-07-29T00:16:33;22.10;44.10
37456;DHT22;23316;50.718;7.328;2022-07-29T00:19:00;22.10;44.20
37456;DHT22;23316;50.718;7.328;2022-07-29T00:21:27;22.10;44.30
37456;DHT22;23316;50.718;7.328;2022-07-29T00:23:54;22.00;44.30
37456;DHT22;23316;50.718;7.328;2022-07-29T00:26:21;22.00;44.30
37456;DHT22;23316;50.718;7.328;2022-07-29T00:28:49;22.00;44.30
37456;DHT22;23316;50.718;7.328;2022-07-29T00:31:17;22.00;44.10
37456;DHT22;23316;50.718;7.328;2022-07-29T00:33:44;22.00;44.20
37456;DHT22;23316;50.718;7.328;2022-07-29T00:36:11;22.00;44.20
37456;DHT22;23316;50.718;7.328;2022-07-29T00:38:38;22.00;44.20
37456;DHT22;23316;50.718;7.328;2022-07-29T00:41:07;22.00;44.30
37456;DHT22;23316;50.718;7.328;2022-07-29T00:43:34;22.00;44.20
37456;DHT22;23316;50.718;7.328;2022-07-29T00:46:01;22.00;44.20
37456;DHT22;23316;50.718;7.328;2022-07-29T00:48:30;22.00;44.20
37456;DHT22;23316;50.718;7.328;2022-07-29T00:50:58;22.00;44.30
37456;DHT22;23316;50.718;7.328;2022-07-29T00:53:25;22.00;44.30
37456;DHT22;23316;50.718;7.328;2022-07-29T00:55:53;22.00;44.30
37456;DHT22;23316;50.718;7.328;2022-07-29T00:58:21;22.00;44.30
37456;DHT22;23316;50.718;7.328;2022-07-29T01:00:48;22.00;44.40
37456;DHT22;23316;50.718;7.328;2022-07-29T01:03:16;22.00;44.30
37456;DHT22;23316;50.718;7.328;2022-07-29T01:05:45;22.00;44.30
37456;DHT22;23316;50.718;7.328;2022-07-29T01:08:15;22.00;44.50
37456;DHT22;23316;50.718;7.328;2022-07-29T01:10:45;22.00;44.70
37456;DHT22;23316;50.718;7.328;2022-07-29T01:13:14;22.00;44.80
37456;DHT22;23316;50.718;7.328;2022-07-29T01:15:44;22.00;44.80
37456;DHT22;23316;50.718;7.328;2022-07-29T01:18:16;22.00;44.90
37456;DHT22;23316;50.718;7.328;2022-07-29T01:21:00;22.00;45.00
37456;DHT22;23316;50.718;7.328;2022-07-29T01:23:52;22.00;45.40
37456;DHT22;23316;50.718;7.328;2022-07-29T01:26:33;21.90;44.70
37456;DHT22;23316;50.718;7.328;2022-07-29T01:29:10;22.00;44.80
37456;DHT22;23316;50.718;7.328;2022-07-29T01:31:43;21.90;44.80
37456;DHT22;23316;50.718;7.328;2022-07-29T01:34:21;21.90;44.80
37456;DHT22;23316;50.718;7.328;2022-07-29T01:36:54;21.90;44.90
37456;DHT22;23316;50.718;7.328;2022-07-29T01:39:27;21.90;44.80
37456;DHT22;23316;50.718;7.328;2022-07-29T01:41:59;21.80;44.80
37456;DHT22;23316;50.718;7.328;2022-07-29T01:44:34;21.80;44.70
37456;DHT22;23316;50.718;7.328;2022-07-29T01:47:05;21.80;44.60
37456;DHT22;23316;50.718;7.328;2022-07-29T01:49:40;21.80;44.40
37456;DHT22;23316;50.718;7.328;2022-07-29T01:52:15;21.80;44.60
37456;DHT22;23316;50.718;7.328;2022-07-29T01:54:50;21.70;44.50
37456;DHT22;23316;50.718;7.328;2022-07-29T01:57:21;21.60;44.50
37456;DHT22;23316;50.718;7.328;2022-07-29T01:59:53;21.60;44.50
37456;DHT22;23316;50.718;7.328;2022-07-29T02:02:22;21.60;44.30
37456;DHT22;23316;50.718;7.328;2022-07-29T02:04:50;21.60;44.20
37456;DHT22;23316;50.718;7.328;2022-07-29T02:07:21;21.50;44.00
37456;DHT22;23316;50.718;7.328;2022-07-29T02:09:50;21.50;44.00
37456;DHT22;23316;50.718;7.328;2022-07-29T02:12:18;21.50;44.30
37456;DHT22;23316;50.718;7.328;2022-07-29T02:14:50;21.50;44.50
37456;DHT22;23316;50.718;7.328;2022-07-29T02:17:23;21.50;44.40
37456;DHT22;23316;50.718;7.328;2022-07-29T02:19:53;21.50;44.30
37456;DHT22;23316;50.718;7.328;2022-07-29T02:22:24;21.50;44.30
37456;DHT22;23316;50.718;7.328;2022-07-29T02:24:53;21.40;44.20
37456;DHT22;23316;50.718;7.328;2022-07-29T02:27:23;21.40;44.20
37456;DHT22;23316;50.718;7.328;2022-07-29T02:29:53;21.40;44.30
37456;DHT22;23316;50.718;7.328;2022-07-29T02:32:24;21.40;44.20
37456;DHT22;23316;50.718;7.328;2022-07-29T02:34:53;21.40;44.20
37456;DHT22;23316;50.718;7.328;2022-07-29T02:37:21;21.30;44.10
37456;DHT22;23316;50.718;7.328;2022-07-29T02:39:51;21.30;44.50
37456;DHT22;23316;50.718;7.328;2022-07-29T02:42:21;21.30;44.00
37456;DHT22;23316;50.718;7.328;2022-07-29T02:44:50;21.30;44.00
37456;DHT22;23316;50.718;7.328;2022-07-29T02:47:20;21.20;43.90
37456;DHT22;23316;50.718;7.328;2022-07-29T02:49:53;21.20;43.90
37456;DHT22;23316;50.718;7.328;2022-07-29T02:52:24;21.20;43.80
37456;DHT22;23316;50.718;7.328;2022-07-29T02:54:55;21.20;43.90
37456;DHT22;23316;50.718;7.328;2022-07-29T02:57:31;21.10;43.90
37456;DHT22;23316;50.718;7.328;2022-07-29T03:00:03;21.10;44.00
37456;DHT22;23316;50.718;7.328;2022-07-29T03:02:34;21.10;43.90
37456;DHT22;23316;50.718;7.328;2022-07-29T03:05:05;21.10;43.90
37456;DHT22;23316;50.718;7.328;2022-07-29T03:07:34;21.10;43.90
37456;DHT22;23316;50.718;7.328;2022-07-29T03:10:03;21.10;43.90
37456;DHT22;23316;50.718;7.328;2022-07-29T03:12:31;21.10;43.80
37456;DHT22;23316;50.718;7.328;2022-07-29T03:14:59;21.10;43.70
37456;DHT22;23316;50.718;7.328;2022-07-29T03:17:27;21.10;43.90
37456;DHT22;23316;50.718;7.328;2022-07-29T03:19:55;21.00;43.90
37456;DHT22;23316;50.718;7.328;2022-07-29T03:22:24;21.00;44.00
37456;DHT22;23316;50.718;7.328;2022-07-29T03:24:51;21.00;44.10
37456;DHT22;23316;50.718;7.328;2022-07-29T03:27:19;21.00;44.20
37456;DHT22;23316;50.718;7.328;2022-07-29T03:29:46;21.00;44.30
37456;DHT22;23316;50.718;7.328;2022-07-29T03:32:13;21.00;44.30
37456;DHT22;23316;50.718;7.328;2022-07-29T03:34:40;20.90;44.40
37456;DHT22;23316;50.718;7.328;2022-07-29T03:37:07;20.90;44.40
37456;DHT22;23316;50.718;7.328;2022-07-29T03:39:39;20.90;44.40
37456;DHT22;23316;50.718;7.328;2022-07-29T03:42:10;20.80;44.30
37456;DHT22;23316;50.718;7.328;2022-07-29T03:44:40;20.80;44.30
37456;DHT22;23316;50.718;7.328;2022-07-29T03:47:09;20.80;44.30
37456;DHT22;23316;50.718;7.328;2022-07-29T03:49:39;20.80;44.50
37456;DHT22;23316;50.718;7.328;2022-07-29T03:52:07;20.70;44.50
37456;DHT22;23316;50.718;7.328;2022-07-29T03:54:36;20.70;44.10
37456;DHT22;23316;50.718;7.328;2022-07-29T03:57:05;20.60;43.80
37456;DHT22;23316;50.718;7.328;2022-07-29T03:59:34;20.60;43.70
37456;DHT22;23316;50.718;7.328;2022-07-29T04:02:03;20.50;44.10
37456;DHT22;23316;50.718;7.328;2022-07-29T04:04:32;20.50;44.40
37456;DHT22;23316;50.718;7.328;2022-07-29T04:07:00;20.40;44.60
37456;DHT22;23316;50.718;7.328;2022-07-29T04:09:27;20.40;44.70
37456;DHT22;23316;50.718;7.328;2022-07-29T04:11:56;20.40;44.80
37456;DHT22;23316;50.718;7.328;2022-07-29T04:14:23;20.40;44.80
37456;DHT22;23316;50.718;7.328;2022-07-29T04:16:50;20.40;44.40
37456;DHT22;23316;50.718;7.328;2022-07-29T04:19:18;20.40;44.40
37456;DHT22;23316;50.718;7.328;2022-07-29T04:21:45;20.40;44.30
37456;DHT22;23316;50.718;7.328;2022-07-29T04:24:13;20.40;44.40
37456;DHT22;23316;50.718;7.328;2022-07-29T04:26:40;20.40;44.60
37456;DHT22;23316;50.718;7.328;2022-07-29T04:29:09;20.40;44.90
37456;DHT22;23316;50.718;7.328;2022-07-29T04:31:37;20.40;45.20
37456;DHT22;23316;50.718;7.328;2022-07-29T04:34:05;20.40;45.10
37456;DHT22;23316;50.718;7.328;2022-07-29T04:36:32;20.40;45.00
37456;DHT22;23316;50.718;7.328;2022-07-29T04:38:59;20.40;44.90
37456;DHT22;23316;50.718;7.328;2022-07-29T04:41:27;20.40;45.10
37456;DHT22;23316;50.718;7.328;2022-07-29T04:43:54;20.40;45.50
37456;DHT22;23316;50.718;7.328;2022-07-29T04:46:23;20.30;45.40
37456;DHT22;23316;50.718;7.328;2022-07-29T04:48:50;20.30;46.00
37456;DHT22;23316;50.718;7.328;2022-07-29T04:51:17;20.30;45.80
37456;DHT22;23316;50.718;7.328;2022-07-29T04:53:44;20.30;46.00
37456;DHT22;23316;50.718;7.328;2022-07-29T04:56:11;20.30;46.30
37456;DHT22;23316;50.718;7.328;2022-07-29T04:58:39;20.20;46.00
37456;DHT22;23316;50.718;7.328;2022-07-29T05:01:06;20.30;46.30
37456;DHT22;23316;50.718;7.328;2022-07-29T05:03:35;20.20;46.00
37456;DHT22;23316;50.718;7.328;2022-07-29T05:06:03;20.20;45.90
37456;DHT22;23316;50.718;7.328;2022-07-29T05:08:30;20.30;45.90
37456;DHT22;23316;50.718;7.328;2022-07-29T05:10:57;20.30;46.00
37456;DHT22;23316;50.718;7.328;2022-07-29T05:13:24;20.30;46.10
37456;DHT22;23316;50.718;7.328;2022-07-29T05:15:51;20.30;46.30
37456;DHT22;23316;50.718;7.328;2022-07-29T05:18:19;20.30;46.50
37456;DHT22;23316;50.718;7.328;2022-07-29T05:20:47;20.30;46.70
37456;DHT22;23316;50.718;7.328;2022-07-29T05:23:14;20.40;46.80
37456;DHT22;23316;50.718;7.328;2022-07-29T05:25:42;20.40;46.70
37456;DHT22;23316;50.718;7.328;2022-07-29T05:28:09;20.50;46.70
37456;DHT22;23316;50.718;7.328;2022-07-29T05:30:36;20.50;46.70
37456;DHT22;23316;50.718;7.328;2022-07-29T05:33:03;20.50;46.90
37456;DHT22;23316;50.718;7.328;2022-07-29T05:35:31;20.60;47.00
37456;DHT22;23316;50.718;7.328;2022-07-29T05:37:59;20.60;47.40
37456;DHT22;23316;50.718;7.328;2022-07-29T05:40:26;20.60;48.00
37456;DHT22;23316;50.718;7.328;2022-07-29T05:42:54;20.70;48.00
37456;DHT22;23316;50.718;7.328;2022-07-29T05:45:21;20.80;48.00
37456;DHT22;23316;50.718;7.328;2022-07-29T05:47:49;20.80;48.20
37456;DHT22;23316;50.718;7.328;2022-07-29T05:50:16;20.80;48.40
37456;DHT22;23316;50.718;7.328;2022-07-29T05:52:43;20.90;48.70
37456;DHT22;23316;50.718;7.328;2022-07-29T05:55:12;21.00;48.90
37456;DHT22;23316;50.718;7.328;2022-07-29T05:57:39;21.00;48.60
37456;DHT22;23316;50.718;7.328;2022-07-29T06:00:07;21.10;48.40
37456;DHT22;23316;50.718;7.328;2022-07-29T06:02:35;21.10;48.20
37456;DHT22;23316;50.718;7.328;2022-07-29T06:05:03;21.10;48.20
37456;DHT22;23316;50.718;7.328;2022-07-29T06:07:30;21.10;48.00
37456;DHT22;23316;50.718;7.328;2022-07-29T06:09:58;21.20;48.10
37456;DHT22;23316;50.718;7.328;2022-07-29T06:12:27;21.20;48.00
37456;DHT22;23316;50.718;7.328;2022-07-29T06:14:54;21.30;48.10
37456;DHT22;23316;50.718;7.328;2022-07-29T06:17:21;21.30;48.10
37456;DHT22;23316;50.718;7.328;2022-07-29T06:19:48;21.40;48.20
37456;DHT22;23316;50.718;7.328;2022-07-29T06:22:16;21.40;48.10
37456;DHT22;23316;50.718;7.328;2022-07-29T06:24:43;21.40;47.90
37456;DHT22;23316;50.718;7.328;2022-07-29T06:30:40;21.50;48.20
37456;DHT22;23316;50.718;7.328;2022-07-29T06:43:06;21.50;48.20
37456;DHT22;23316;50.718;7.328;2022-07-29T06:45:33;21.60;48.50
37456;DHT22;23316;50.718;7.328;2022-07-29T06:48:02;21.60;48.20
37456;DHT22;23316;50.718;7.328;2022-07-29T06:50:29;21.60;48.00
37456;DHT22;23316;50.718;7.328;2022-07-29T06:52:57;21.60;47.90
37456;DHT22;23316;50.718;7.328;2022-07-29T06:55:24;21.60;47.90
37456;DHT22;23316;50.718;7.328;2022-07-29T06:57:52;21.60;48.00
37456;DHT22;23316;50.718;7.328;2022-07-29T07:00:20;21.70;47.80
37456;DHT22;23316;50.718;7.328;2022-07-29T07:02:47;21.70;47.50
37456;DHT22;23316;50.718;7.328;2022-07-29T07:05:15;21.80;47.30
37456;DHT22;23316;50.718;7.328;2022-07-29T07:07:42;21.80;47.40
37456;DHT22;23316;50.718;7.328;2022-07-29T07:10:10;21.90;47.20
37456;DHT22;23316;50.718;7.328;2022-07-29T07:12:37;22.00;46.90
37456;DHT22;23316;50.718;7.328;2022-07-29T07:15:06;22.00;45.70
37456;DHT22;23316;50.718;7.328;2022-07-29T07:17:33;22.00;45.80
37456;DHT22;23316;50.718;7.328;2022-07-29T07:20:00;22.00;46.10
37456;DHT22;23316;50.718;7.328;2022-07-29T07:22:29;22.10;45.70
37456;DHT22;23316;50.718;7.328;2022-07-29T07:24:56;22.20;46.00
37456;DHT22;23316;50.718;7.328;2022-07-29T07:27:23;22.10;45.70
37456;DHT22;23316;50.718;7.328;2022-07-29T07:29:50;22.20;45.20
37456;DHT22;23316;50.718;7.328;2022-07-29T07:32:18;22.20;45.00
37456;DHT22;23316;50.718;7.328;2022-07-29T07:34:45;22.30;45.20
37456;DHT22;23316;50.718;7.328;2022-07-29T07:37:12;22.30;44.80
37456;DHT22;23316;50.718;7.328;2022-07-29T07:39:41;22.20;44.60
37456;DHT22;23316;50.718;7.328;2022-07-29T07:42:09;22.30;45.10
37456;DHT22;23316;50.718;7.328;2022-07-29T07:44:38;22.30;45.60
37456;DHT22;23316;50.718;7.328;2022-07-29T07:47:06;22.30;45.30
37456;DHT22;23316;50.718;7.328;2022-07-29T07:49:33;22.40;45.20
37456;DHT22;23316;50.718;7.328;2022-07-29T07:52:00;22.40;45.10
37456;DHT22;23316;50.718;7.328;2022-07-29T07:54:27;22.50;45.00
37456;DHT22;23316;50.718;7.328;2022-07-29T07:56:56;22.50;44.30
37456;DHT22;23316;50.718;7.328;2022-07-29T07:59:23;22.50;43.80
37456;DHT22;23316;50.718;7.328;2022-07-29T08:01:50;22.60;44.00
37456;DHT22;23316;50.718;7.328;2022-07-29T08:04:18;22.60;44.20
37456;DHT22;23316;50.718;7.328;2022-07-29T08:06:45;22.70;43.80
37456;DHT22;23316;50.718;7.328;2022-07-29T08:09:12;22.70;43.90
37456;DHT22;23316;50.718;7.328;2022-07-29T08:11:39;22.80;43.80
37456;DHT22;23316;50.718;7.328;2022-07-29T08:14:08;22.80;43.40
37456;DHT22;23316;50.718;7.328;2022-07-29T08:16:35;22.90;43.60
37456;DHT22;23316;50.718;7.328;2022-07-29T08:19:02;22.90;44.20
37456;DHT22;23316;50.718;7.328;2022-07-29T08:21:29;23.00;44.20
37456;DHT22;23316;50.718;7.328;2022-07-29T08:23:56;23.10;44.20
37456;DHT22;23316;50.718;7.328;2022-07-29T08:26:38;23.10;44.00
37456;DHT22;23316;50.718;7.328;2022-07-29T08:29:05;23.20;43.30
37456;DHT22;23316;50.718;7.328;2022-07-29T08:31:33;23.30;42.30
37456;DHT22;23316;50.718;7.328;2022-07-29T08:34:00;23.30;41.90
37456;DHT22;23316;50.718;7.328;2022-07-29T08:36:28;23.30;41.80
37456;DHT22;23316;50.718;7.328;2022-07-29T08:38:55;23.30;42.00
37456;DHT22;23316;50.718;7.328;2022-07-29T08:41:23;23.40;42.60
37456;DHT22;23316;50.718;7.328;2022-07-29T08:43:50;23.40;42.70
37456;DHT22;23316;50.718;7.328;2022-07-29T08:46:18;23.50;42.20
37456;DHT22;23316;50.718;7.328;2022-07-29T08:48:47;23.50;42.50
37456;DHT22;23316;50.718;7.328;2022-07-29T08:51:16;23.60;42.30
37456;DHT22;23316;50.718;7.328;2022-07-29T08:53:45;23.70;42.30
37456;DHT22;23316;50.718;7.328;2022-07-29T08:56:14;23.80;41.70
37456;DHT22;23316;50.718;7.328;2022-07-29T08:58:43;23.90;41.20
37456;DHT22;23316;50.718;7.328;2022-07-29T09:01:12;23.90;41.80
37456;DHT22;23316;50.718;7.328;2022-07-29T09:03:41;24.10;41.70
37456;DHT22;23316;50.718;7.328;2022-07-29T09:06:13;24.10;41.90
37456;DHT22;23316;50.718;7.328;2022-07-29T09:08:40;24.20;41.80
37456;DHT22;23316;50.718;7.328;2022-07-29T09:11:08;24.30;41.40
37456;DHT22;23316;50.718;7.328;2022-07-29T09:13:36;24.40;41.20
37456;DHT22;23316;50.718;7.328;2022-07-29T09:16:04;24.50;40.50
37456;DHT22;23316;50.718;7.328;2022-07-29T09:18:35;24.50;40.00
37456;DHT22;23316;50.718;7.328;2022-07-29T09:21:03;24.60;40.20
37456;DHT22;23316;50.718;7.328;2022-07-29T09:24:05;24.70;40.20
37456;DHT22;23316;50.718;7.328;2022-07-29T09:26:34;24.70;39.00
37456;DHT22;23316;50.718;7.328;2022-07-29T09:29:08;24.80;39.00
37456;DHT22;23316;50.718;7.328;2022-07-29T09:31:37;24.80;38.70
37456;DHT22;23316;50.718;7.328;2022-07-29T09:34:05;24.80;38.90
37456;DHT22;23316;50.718;7.328;2022-07-29T09:36:39;24.80;39.40
37456;DHT22;23316;50.718;7.328;2022-07-29T09:39:08;24.90;39.30
37456;DHT22;23316;50.718;7.328;2022-07-29T09:41:45;25.00;39.40
37456;DHT22;23316;50.718;7.328;2022-07-29T09:44:13;25.00;39.70
37456;DHT22;23316;50.718;7.328;2022-07-29T09:46:51;25.10;38.70
37456;DHT22;23316;50.718;7.328;2022-07-29T09:49:18;25.10;39.10
37456;DHT22;23316;50.718;7.328;2022-07-29T09:51:46;25.20;39.40
37456;DHT22;23316;50.718;7.328;2022-07-29T09:54:24;25.30;39.50
37456;DHT22;23316;50.718;7.328;2022-07-29T09:56:52;25.30;38.60
37456;DHT22;23316;50.718;7.328;2022-07-29T09:59:20;25.40;38.80
37456;DHT22;23316;50.718;7.328;2022-07-29T10:01:50;25.40;38.90
37456;DHT22;23316;50.718;7.328;2022-07-29T10:04:18;25.50;38.90
37456;DHT22;23316;50.718;7.328;2022-07-29T10:06:58;25.50;39.00
37456;DHT22;23316;50.718;7.328;2022-07-29T10:09:28;25.50;39.00
37456;DHT22;23316;50.718;7.328;2022-07-29T10:12:09;25.70;38.70
37456;DHT22;23316;50.718;7.328;2022-07-29T10:14:37;25.70;37.70
37456;DHT22;23316;50.718;7.328;2022-07-29T10:17:06;25.70;37.80
37456;DHT22;23316;50.718;7.328;2022-07-29T10:19:34;25.80;37.70
37456;DHT22;23316;50.718;7.328;2022-07-29T10:22:04;25.90;37.90
37456;DHT22;23316;50.718;7.328;2022-07-29T10:24:33;26.00;38.30
37456;DHT22;23316;50.718;7.328;2022-07-29T10:27:02;26.00;38.40
37456;DHT22;23316;50.718;7.328;2022-07-29T10:29:30;26.10;38.50
37456;DHT22;23316;50.718;7.328;2022-07-29T10:32:11;26.20;37.40
37456;DHT22;23316;50.718;7.328;2022-07-29T10:35:12;26.20;37.70
37456;DHT22;23316;50.718;7.328;2022-07-29T10:37:56;26.30;36.90
37456;DHT22;23316;50.718;7.328;2022-07-29T10:40:39;26.30;37.90
37456;DHT22;23316;50.718;7.328;2022-07-29T10:43:29;26.40;37.80
37456;DHT22;23316;50.718;7.328;2022-07-29T10:46:00;26.50;37.00
37456;DHT22;23316;50.718;7.328;2022-07-29T10:48:27;26.60;37.50
37456;DHT22;23316;50.718;7.328;2022-07-29T10:50:56;26.70;37.80
37456;DHT22;23316;50.718;7.328;2022-07-29T10:53:45;26.70;37.80
37456;DHT22;23316;50.718;7.328;2022-07-29T10:56:25;26.80;37.70
37456;DHT22;23316;50.718;7.328;2022-07-29T10:59:23;26.90;37.60
37456;DHT22;23316;50.718;7.328;2022-07-29T11:01:52;27.00;37.50
37456;DHT22;23316;50.718;7.328;2022-07-29T11:07:24;27.10;37.00
37456;DHT22;23316;50.718;7.328;2022-07-29T11:10:20;27.10;37.10
37456;DHT22;23316;50.718;7.328;2022-07-29T11:12:49;27.20;37.30
37456;DHT22;23316;50.718;7.328;2022-07-29T11:15:19;27.20;37.10
37456;DHT22;23316;50.718;7.328;2022-07-29T11:18:06;27.30;36.20
37456;DHT22;23316;50.718;7.328;2022-07-29T11:20:36;27.30;36.00
37456;DHT22;23316;50.718;7.328;2022-07-29T11:23:20;27.30;35.50
37456;DHT22;23316;50.718;7.328;2022-07-29T11:26:13;27.30;35.40
37456;DHT22;23316;50.718;7.328;2022-07-29T11:28:51;27.30;35.90
37456;DHT22;23316;50.718;7.328;2022-07-29T11:31:31;27.40;35.60
37456;DHT22;23316;50.718;7.328;2022-07-29T11:34:18;27.40;34.70
37456;DHT22;23316;50.718;7.328;2022-07-29T11:37:16;27.40;34.70
37456;DHT22;23316;50.718;7.328;2022-07-29T11:39:45;27.30;34.60
37456;DHT22;23316;50.718;7.328;2022-07-29T11:42:41;27.40;35.00
37456;DHT22;23316;50.718;7.328;2022-07-29T11:45:11;27.30;36.10
37456;DHT22;23316;50.718;7.328;2022-07-29T11:47:41;27.30;35.40
37456;DHT22;23316;50.718;7.328;2022-07-29T11:50:10;27.30;35.20
37456;DHT22;23316;50.718;7.328;2022-07-29T11:52:39;27.30;35.30
37456;DHT22;23316;50.718;7.328;2022-07-29T11:55:13;27.30;35.50
37456;DHT22;23316;50.718;7.328;2022-07-29T11:57:49;27.30;36.70
37456;DHT22;23316;50.718;7.328;2022-07-29T12:00:28;27.40;35.60
37456;DHT22;23316;50.718;7.328;2022-07-29T12:02:57;27.40;35.30
37456;DHT22;23316;50.718;7.328;2022-07-29T12:05:32;27.40;36.00
37456;DHT22;23316;50.718;7.328;2022-07-29T12:08:07;27.50;35.50
37456;DHT22;23316;50.718;7.328;2022-07-29T12:10:35;27.50;36.10
37456;DHT22;23316;50.718;7.328;2022-07-29T12:13:02;27.50;36.10
37456;DHT22;23316;50.718;7.328;2022-07-29T12:15:31;27.50;36.10
37456;DHT22;23316;50.718;7.328;2022-07-29T12:17:58;27.50;35.70
37456;DHT22;23316;50.718;7.328;2022-07-29T12:20:35;27.50;35.50
37456;DHT22;23316;50.718;7.328;2022-07-29T12:23:05;27.60;35.70
37456;DHT22;23316;50.718;7.328;2022-07-29T12:25:33;27.60;34.70
37456;DHT22;23316;50.718;7.328;2022-07-29T12:28:03;27.70;34.90
37456;DHT22;23316;50.718;7.328;2022-07-29T12:30:40;27.60;35.10
37456;DHT22;23316;50.718;7.328;2022-07-29T12:33:16;27.70;35.60
37456;DHT22;23316;50.718;7.328;2022-07-29T12:35:45;27.70;35.10
37456;DHT22;23316;50.718;7.328;2022-07-29T12:38:13;27.60;35.30
37456;DHT22;23316;50.718;7.328;2022-07-29T12:40:41;27.70;35.50
37456;DHT22;23316;50.718;7.328;2022-07-29T12:43:11;27.70;35.90
37456;DHT22;23316;50.718;7.328;2022-07-29T12:45:42;27.70;36.50
37456;DHT22;23316;50.718;7.328;2022-07-29T12:48:10;27.80;36.10
37456;DHT22;23316;50.718;7.328;2022-07-29T12:50:53;27.80;35.40
37456;DHT22;23316;50.718;7.328;2022-07-29T12:53:20;27.80;35.90
37456;DHT22;23316;50.718;7.328;2022-07-29T12:55:49;27.80;36.30
37456;DHT22;23316;50.718;7.328;2022-07-29T12:58:32;27.80;37.10
37456;DHT22;23316;50.718;7.328;2022-07-29T13:01:06;27.80;36.20
37456;DHT22;23316;50.718;7.328;2022-07-29T13:03:51;27.80;36.90
37456;DHT22;23316;50.718;7.328;2022-07-29T13:06:33;27.80;35.50
37456;DHT22;23316;50.718;7.328;2022-07-29T13:09:09;27.80;36.50
37456;DHT22;23316;50.718;7.328;2022-07-29T13:11:38;27.80;35.20
37456;DHT22;23316;50.718;7.328;2022-07-29T13:14:07;27.80;35.40
37456;DHT22;23316;50.718;7.328;2022-07-29T13:16:40;27.80;35.80
37456;DHT22;23316;50.718;7.328;2022-07-29T13:19:33;27.70;36.10
37456;DHT22;23316;50.718;7.328;2022-07-29T13:22:01;27.70;35.30
37456;DHT22;23316;50.718;7.328;2022-07-29T13:24:28;27.70;35.40
37456;DHT22;23316;50.718;7.328;2022-07-29T13:26:56;27.80;35.70
37456;DHT22;23316;50.718;7.328;2022-07-29T13:29:23;27.80;35.60
37456;DHT22;23316;50.718;7.328;2022-07-29T13:31:53;27.80;34.90
37456;DHT22;23316;50.718;7.328;2022-07-29T13:34:21;27.80;34.70
37456;DHT22;23316;50.718;7.328;2022-07-29T13:36:50;27.80;34.80
37456;DHT22;23316;50.718;7.328;2022-07-29T13:39:17;27.80;35.10
37456;DHT22;23316;50.718;7.328;2022-07-29T13:41:44;27.80;35.30
37456;DHT22;23316;50.718;7.328;2022-07-29T13:44:12;27.80;35.80
37456;DHT22;23316;50.718;7.328;2022-07-29T13:46:39;27.80;35.70
37456;DHT22;23316;50.718;7.328;2022-07-29T13:49:07;27.90;35.90
37456;DHT22;23316;50.718;7.328;2022-07-29T13:51:34;27.90;35.10
37456;DHT22;23316;50.718;7.328;2022-07-29T13:54:02;27.90;35.10
37456;DHT22;23316;50.718;7.328;2022-07-29T13:56:29;27.80;35.30
37456;DHT22;23316;50.718;7.328;2022-07-29T13:58:56;27.80;35.80
37456;DHT22;23316;50.718;7.328;2022-07-29T14:01:24;27.90;35.60
37456;DHT22;23316;50.718;7.328;2022-07-29T14:03:51;27.90;35.20
37456;DHT22;23316;50.718;7.328;2022-07-29T14:06:20;27.90;35.60
37456;DHT22;23316;50.718;7.328;2022-07-29T14:08:47;27.90;35.30
37456;DHT22;23316;50.718;7.328;2022-07-29T14:11:14;27.90;35.90
37456;DHT22;23316;50.718;7.328;2022-07-29T14:13:42;27.80;35.30
37456;DHT22;23316;50.718;7.328;2022-07-29T14:16:09;27.80;35.50
37456;DHT22;23316;50.718;7.328;2022-07-29T14:18:36;27.80;35.70
37456;DHT22;23316;50.718;7.328;2022-07-29T14:21:03;27.80;35.80
37456;DHT22;23316;50.718;7.328;2022-07-29T14:23:32;27.80;35.30
37456;DHT22;23316;50.718;7.328;2022-07-29T14:25:59;27.80;35.90
37456;DHT22;23316;50.718;7.328;2022-07-29T14:28:27;27.70;35.60
37456;DHT22;23316;50.718;7.328;2022-07-29T14:30:54;27.80;35.60
37456;DHT22;23316;50.718;7.328;2022-07-29T14:33:21;27.80;35.10
37456;DHT22;23316;50.718;7.328;2022-07-29T14:35:49;27.80;35.20
37456;DHT22;23316;50.718;7.328;2022-07-29T14:38:16;27.70;35.10
37456;DHT22;23316;50.718;7.328;2022-07-29T14:40:45;27.80;35.50
37456;DHT22;23316;50.718;7.328;2022-07-29T14:43:13;27.80;35.40
37456;DHT22;23316;50.718;7.328;2022-07-29T14:45:40;27.80;35.00
37456;DHT22;23316;50.718;7.328;2022-07-29T14:48:07;27.80;35.20
37456;DHT22;23316;50.718;7.328;2022-07-29T14:50:34;27.80;34.80
37456;DHT22;23316;50.718;7.328;2022-07-29T14:53:02;27.80;34.50
37456;DHT22;23316;50.718;7.328;2022-07-29T14:55:29;27.80;34.80
37456;DHT22;23316;50.718;7.328;2022-07-29T14:57:58;27.90;34.70
37456;DHT22;23316;50.718;7.328;2022-07-29T15:00:26;27.90;34.00
37456;DHT22;23316;50.718;7.328;2022-07-29T15:02:53;27.90;34.80
37456;DHT22;23316;50.718;7.328;2022-07-29T15:05:20;27.90;34.50
37456;DHT22;23316;50.718;7.328;2022-07-29T15:07:47;27.90;34.00
37456;DHT22;23316;50.718;7.328;2022-07-29T15:10:15;27.90;34.10
37456;DHT22;23316;50.718;7.328;2022-07-29T15:12:42;27.90;33.90
37456;DHT22;23316;50.718;7.328;2022-07-29T15:15:10;27.90;34.00
37456;DHT22;23316;50.718;7.328;2022-07-29T15:17:38;27.90;34.20
37456;DHT22;23316;50.718;7.328;2022-07-29T15:20:06;27.90;34.20
37456;DHT22;23316;50.718;7.328;2022-07-29T15:22:33;27.80;33.60
37456;DHT22;23316;50.718;7.328;2022-07-29T15:25:00;27.80;34.10
37456;DHT22;23316;50.718;7.328;2022-07-29T15:27:27;27.80;34.10
37456;DHT22;23316;50.718;7.328;2022-07-29T15:29:55;27.80;34.40
37456;DHT22;23316;50.718;7.328;2022-07-29T15:32:23;27.90;34.20
37456;DHT22;23316;50.718;7.328;2022-07-29T15:34:50;27.90;34.40
37456;DHT22;23316;50.718;7.328;2022-07-29T15:37:18;27.90;34.40
37456;DHT22;23316;50.718;7.328;2022-07-29T15:39:45;27.80;34.60
37456;DHT22;23316;50.718;7.328;2022-07-29T15:42:12;27.80;34.70
37456;DHT22;23316;50.718;7.328;2022-07-29T15:44:39;27.80;34.60
37456;DHT22;23316;50.718;7.328;2022-07-29T15:47:07;27.80;34.80
37456;DHT22;23316;50.718;7.328;2022-07-29T15:49:37;27.80;34.60
37456;DHT22;23316;50.718;7.328;2022-07-29T15:52:05;27.70;34.40
37456;DHT22;23316;50.718;7.328;2022-07-29T15:54:33;27.70;34.80
37456;DHT22;23316;50.718;7.328;2022-07-29T15:57:01;27.60;35.10
37456;DHT22;23316;50.718;7.328;2022-07-29T15:59:28;27.60;35.40
37456;DHT22;23316;50.718;7.328;2022-07-29T16:01:56;27.60;35.10
37456;DHT22;23316;50.718;7.328;2022-07-29T16:04:23;27.60;35.10